Pagrindinis puslapis
METAR-TAF:

METAR-TAF

Oro uostai :

Normanton, Australija

platuma: 17-41-06S, ilguma: 141-04-12E, Aukštis: 22 m

Dabartinis oras

Ataskaita buvo paskelbta 22 minutes, ne 04:00 UTC
Vėjas 11 kt iš Pietų
Temperatūra 35°C
Drėgmė 44%
Slėgis 1003 hPa
Matomumas 10 km arba daugiau

METAR: YNTN 020400Z AUTO 18011KT 9999 // NCD 35/21 Q1003

Laikas: 14:22 (04:22 UTC)


TAF: trūkstamas

Orai ataskaitas ir orų prognozės (METAR, TAF).

turimą stotys yra geltonos ir raudonos taškus žemėlapyje.

Perkelti pele per norėdami pamatyti stoties vardą.

Tada spustelėkite, norėdami matyti oro stebėjimo ir prognozės.

Norėdami pakeisti žemėlapį: spustelėkite ant žalios mygtukų su juodo kryžiaus žemyn,; žalią mygtuką su brūkšneliu, jei norite nutolinti; arba žalių rodyklių gretimoms žemėlapius.


METAR-TAF: